sensor_id;sensor_type;location;lat;lon;timestamp;temperature;humidity
19538;DHT22;9914;51.008;4.300;2024-01-15T00:01:57;3.60;99.90
19538;DHT22;9914;51.008;4.300;2024-01-15T00:04:23;3.60;99.90
19538;DHT22;9914;51.008;4.300;2024-01-15T00:06:49;3.60;99.90
19538;DHT22;9914;51.008;4.300;2024-01-15T00:09:15;3.70;99.90
19538;DHT22;9914;51.008;4.300;2024-01-15T00:11:41;3.80;99.90
19538;DHT22;9914;51.008;4.300;2024-01-15T00:14:07;3.80;99.90
19538;DHT22;9914;51.008;4.300;2024-01-15T00:16:33;3.90;99.90
19538;DHT22;9914;51.008;4.300;2024-01-15T00:18:59;3.90;99.90
19538;DHT22;9914;51.008;4.300;2024-01-15T00:21:24;4.00;99.90
19538;DHT22;9914;51.008;4.300;2024-01-15T00:23:50;3.80;99.90
19538;DHT22;9914;51.008;4.300;2024-01-15T00:26:15;4.00;99.90
19538;DHT22;9914;51.008;4.300;2024-01-15T00:28:41;4.10;99.90
19538;DHT22;9914;51.008;4.300;2024-01-15T00:31:08;4.10;99.90
19538;DHT22;9914;51.008;4.300;2024-01-15T00:33:34;4.10;99.90
19538;DHT22;9914;51.008;4.300;2024-01-15T00:36:00;4.20;99.90
19538;DHT22;9914;51.008;4.300;2024-01-15T00:38:26;4.30;99.90
19538;DHT22;9914;51.008;4.300;2024-01-15T00:40:52;4.40;99.90
19538;DHT22;9914;51.008;4.300;2024-01-15T00:43:17;4.40;99.90
19538;DHT22;9914;51.008;4.300;2024-01-15T00:45:44;4.30;99.90
19538;DHT22;9914;51.008;4.300;2024-01-15T00:48:10;4.20;99.90
19538;DHT22;9914;51.008;4.300;2024-01-15T00:50:36;4.10;99.90
19538;DHT22;9914;51.008;4.300;2024-01-15T00:53:01;4.10;99.90
19538;DHT22;9914;51.008;4.300;2024-01-15T00:55:28;4.00;99.90
19538;DHT22;9914;51.008;4.300;2024-01-15T00:57:54;4.00;99.90
19538;DHT22;9914;51.008;4.300;2024-01-15T01:00:20;3.90;99.90
19538;DHT22;9914;51.008;4.300;2024-01-15T01:02:46;4.00;99.90
19538;DHT22;9914;51.008;4.300;2024-01-15T01:05:11;4.00;99.90
19538;DHT22;9914;51.008;4.300;2024-01-15T01:07:37;3.90;99.90
19538;DHT22;9914;51.008;4.300;2024-01-15T01:10:03;3.90;99.90
19538;DHT22;9914;51.008;4.300;2024-01-15T01:12:29;4.00;99.90
19538;DHT22;9914;51.008;4.300;2024-01-15T01:14:55;3.90;99.90
19538;DHT22;9914;51.008;4.300;2024-01-15T01:17:21;3.80;99.90
19538;DHT22;9914;51.008;4.300;2024-01-15T01:19:47;4.00;99.90
19538;DHT22;9914;51.008;4.300;2024-01-15T01:22:13;3.90;99.90
19538;DHT22;9914;51.008;4.300;2024-01-15T01:24:38;3.90;99.90
19538;DHT22;9914;51.008;4.300;2024-01-15T01:27:04;4.00;99.90
19538;DHT22;9914;51.008;4.300;2024-01-15T01:29:29;4.00;99.90
19538;DHT22;9914;51.008;4.300;2024-01-15T01:31:55;4.00;99.90
19538;DHT22;9914;51.008;4.300;2024-01-15T01:34:21;4.10;99.90
19538;DHT22;9914;51.008;4.300;2024-01-15T01:36:47;4.00;99.90
19538;DHT22;9914;51.008;4.300;2024-01-15T01:39:13;4.00;99.90
19538;DHT22;9914;51.008;4.300;2024-01-15T01:41:39;3.90;99.90
19538;DHT22;9914;51.008;4.300;2024-01-15T01:44:06;3.90;99.90
19538;DHT22;9914;51.008;4.300;2024-01-15T01:46:33;3.90;99.90
19538;DHT22;9914;51.008;4.300;2024-01-15T01:49:00;3.90;99.90
19538;DHT22;9914;51.008;4.300;2024-01-15T01:51:31;3.90;99.90
19538;DHT22;9914;51.008;4.300;2024-01-15T01:53:57;4.00;99.90
19538;DHT22;9914;51.008;4.300;2024-01-15T01:56:22;3.90;99.90
19538;DHT22;9914;51.008;4.300;2024-01-15T01:58:48;4.00;99.90
19538;DHT22;9914;51.008;4.300;2024-01-15T02:01:15;4.10;99.90
19538;DHT22;9914;51.008;4.300;2024-01-15T02:03:41;4.10;99.90
19538;DHT22;9914;51.008;4.300;2024-01-15T02:06:07;4.00;99.90
19538;DHT22;9914;51.008;4.300;2024-01-15T02:08:33;3.90;99.90
19538;DHT22;9914;51.008;4.300;2024-01-15T02:11:00;3.90;99.90
19538;DHT22;9914;51.008;4.300;2024-01-15T02:13:25;4.10;99.90
19538;DHT22;9914;51.008;4.300;2024-01-15T02:15:51;4.20;99.90
19538;DHT22;9914;51.008;4.300;2024-01-15T02:18:17;4.30;99.90
19538;DHT22;9914;51.008;4.300;2024-01-15T02:20:42;4.30;99.90
19538;DHT22;9914;51.008;4.300;2024-01-15T02:23:12;4.30;99.90
19538;DHT22;9914;51.008;4.300;2024-01-15T02:25:47;4.30;99.90
19538;DHT22;9914;51.008;4.300;2024-01-15T02:28:15;4.10;99.90
19538;DHT22;9914;51.008;4.300;2024-01-15T02:30:41;4.20;99.90
19538;DHT22;9914;51.008;4.300;2024-01-15T02:33:08;4.20;99.90
19538;DHT22;9914;51.008;4.300;2024-01-15T02:35:34;4.20;99.90
19538;DHT22;9914;51.008;4.300;2024-01-15T02:38:02;4.20;99.90
19538;DHT22;9914;51.008;4.300;2024-01-15T02:40:28;4.20;99.90
19538;DHT22;9914;51.008;4.300;2024-01-15T02:42:54;4.10;99.90
19538;DHT22;9914;51.008;4.300;2024-01-15T02:45:20;4.10;99.90
19538;DHT22;9914;51.008;4.300;2024-01-15T02:47:46;4.10;99.90
19538;DHT22;9914;51.008;4.300;2024-01-15T02:50:13;4.10;99.90
19538;DHT22;9914;51.008;4.300;2024-01-15T02:52:39;4.20;99.90
19538;DHT22;9914;51.008;4.300;2024-01-15T02:55:04;4.20;99.90
19538;DHT22;9914;51.008;4.300;2024-01-15T02:57:30;4.20;99.90
19538;DHT22;9914;51.008;4.300;2024-01-15T02:59:56;4.10;99.90
19538;DHT22;9914;51.008;4.300;2024-01-15T03:02:22;4.10;99.90
19538;DHT22;9914;51.008;4.300;2024-01-15T03:04:48;3.90;99.90
19538;DHT22;9914;51.008;4.300;2024-01-15T03:07:13;3.90;99.90
19538;DHT22;9914;51.008;4.300;2024-01-15T03:09:39;4.10;99.90
19538;DHT22;9914;51.008;4.300;2024-01-15T03:12:05;4.20;99.90
19538;DHT22;9914;51.008;4.300;2024-01-15T03:14:31;4.30;99.90
19538;DHT22;9914;51.008;4.300;2024-01-15T03:16:57;4.40;99.90
19538;DHT22;9914;51.008;4.300;2024-01-15T03:19:23;4.50;99.90
19538;DHT22;9914;51.008;4.300;2024-01-15T03:21:48;4.50;99.90
19538;DHT22;9914;51.008;4.300;2024-01-15T03:24:14;4.40;99.90
19538;DHT22;9914;51.008;4.300;2024-01-15T03:26:40;4.50;99.90
19538;DHT22;9914;51.008;4.300;2024-01-15T03:29:06;4.40;99.90
19538;DHT22;9914;51.008;4.300;2024-01-15T03:31:32;4.30;99.90
19538;DHT22;9914;51.008;4.300;2024-01-15T03:33:58;4.20;99.90
19538;DHT22;9914;51.008;4.300;2024-01-15T03:36:24;4.20;99.90
19538;DHT22;9914;51.008;4.300;2024-01-15T03:38:49;4.40;99.90
19538;DHT22;9914;51.008;4.300;2024-01-15T03:41:15;4.50;99.90
19538;DHT22;9914;51.008;4.300;2024-01-15T03:43:41;4.50;99.90
19538;DHT22;9914;51.008;4.300;2024-01-15T03:46:07;4.30;99.90
19538;DHT22;9914;51.008;4.300;2024-01-15T03:48:32;4.20;99.90
19538;DHT22;9914;51.008;4.300;2024-01-15T03:50:58;4.30;99.90
19538;DHT22;9914;51.008;4.300;2024-01-15T03:53:24;4.30;99.90
19538;DHT22;9914;51.008;4.300;2024-01-15T03:55:50;4.40;99.90
19538;DHT22;9914;51.008;4.300;2024-01-15T03:58:16;4.30;99.90
19538;DHT22;9914;51.008;4.300;2024-01-15T04:00:42;4.30;99.90
19538;DHT22;9914;51.008;4.300;2024-01-15T04:03:08;4.20;99.90
19538;DHT22;9914;51.008;4.300;2024-01-15T04:05:34;4.20;99.90
19538;DHT22;9914;51.008;4.300;2024-01-15T04:07:59;4.10;99.90
19538;DHT22;9914;51.008;4.300;2024-01-15T04:10:25;4.00;99.90
19538;DHT22;9914;51.008;4.300;2024-01-15T04:12:51;4.00;99.90
19538;DHT22;9914;51.008;4.300;2024-01-15T04:15:16;3.90;99.90
19538;DHT22;9914;51.008;4.300;2024-01-15T04:17:42;3.80;99.90
19538;DHT22;9914;51.008;4.300;2024-01-15T04:20:08;3.80;99.90
19538;DHT22;9914;51.008;4.300;2024-01-15T04:22:35;3.70;99.90
19538;DHT22;9914;51.008;4.300;2024-01-15T04:25:01;3.70;99.90
19538;DHT22;9914;51.008;4.300;2024-01-15T04:27:27;3.70;99.90
19538;DHT22;9914;51.008;4.300;2024-01-15T04:29:53;3.70;99.90
19538;DHT22;9914;51.008;4.300;2024-01-15T04:32:19;3.60;99.90
19538;DHT22;9914;51.008;4.300;2024-01-15T04:34:45;3.50;99.90
19538;DHT22;9914;51.008;4.300;2024-01-15T04:37:11;3.40;99.90
19538;DHT22;9914;51.008;4.300;2024-01-15T04:39:36;3.50;99.90
19538;DHT22;9914;51.008;4.300;2024-01-15T04:42:02;3.60;99.90
19538;DHT22;9914;51.008;4.300;2024-01-15T04:44:28;3.70;99.90
19538;DHT22;9914;51.008;4.300;2024-01-15T04:46:54;3.60;99.90
19538;DHT22;9914;51.008;4.300;2024-01-15T04:49:20;3.60;99.90
19538;DHT22;9914;51.008;4.300;2024-01-15T04:51:45;3.60;99.90
19538;DHT22;9914;51.008;4.300;2024-01-15T04:54:11;3.60;99.90
19538;DHT22;9914;51.008;4.300;2024-01-15T04:56:37;3.50;99.90
19538;DHT22;9914;51.008;4.300;2024-01-15T04:59:03;3.50;99.90
19538;DHT22;9914;51.008;4.300;2024-01-15T05:01:32;3.50;99.90
19538;DHT22;9914;51.008;4.300;2024-01-15T05:03:58;3.50;99.90
19538;DHT22;9914;51.008;4.300;2024-01-15T05:06:24;3.50;99.90
19538;DHT22;9914;51.008;4.300;2024-01-15T05:08:49;3.50;99.90
19538;DHT22;9914;51.008;4.300;2024-01-15T05:11:15;3.40;99.90
19538;DHT22;9914;51.008;4.300;2024-01-15T05:13:41;3.40;99.90
19538;DHT22;9914;51.008;4.300;2024-01-15T05:16:07;3.30;99.90
19538;DHT22;9914;51.008;4.300;2024-01-15T05:18:32;3.30;99.90
19538;DHT22;9914;51.008;4.300;2024-01-15T05:20:58;3.30;99.90
19538;DHT22;9914;51.008;4.300;2024-01-15T05:23:23;3.30;99.90
19538;DHT22;9914;51.008;4.300;2024-01-15T05:25:49;3.20;99.90
19538;DHT22;9914;51.008;4.300;2024-01-15T05:28:15;3.20;99.90
19538;DHT22;9914;51.008;4.300;2024-01-15T05:30:40;3.20;99.90
19538;DHT22;9914;51.008;4.300;2024-01-15T05:33:06;3.10;99.90
19538;DHT22;9914;51.008;4.300;2024-01-15T05:35:33;3.10;99.90
19538;DHT22;9914;51.008;4.300;2024-01-15T05:37:58;3.10;99.90
19538;DHT22;9914;51.008;4.300;2024-01-15T05:40:24;3.10;99.90
19538;DHT22;9914;51.008;4.300;2024-01-15T05:42:50;3.10;99.90
19538;DHT22;9914;51.008;4.300;2024-01-15T05:45:16;3.10;99.90
19538;DHT22;9914;51.008;4.300;2024-01-15T05:47:41;3.10;99.90
19538;DHT22;9914;51.008;4.300;2024-01-15T05:50:08;3.10;99.90
19538;DHT22;9914;51.008;4.300;2024-01-15T05:52:33;3.10;99.90
19538;DHT22;9914;51.008;4.300;2024-01-15T05:54:59;3.10;99.90
19538;DHT22;9914;51.008;4.300;2024-01-15T05:57:25;3.00;99.90
19538;DHT22;9914;51.008;4.300;2024-01-15T05:59:51;3.10;99.90
19538;DHT22;9914;51.008;4.300;2024-01-15T06:02:16;3.10;99.90
19538;DHT22;9914;51.008;4.300;2024-01-15T06:04:42;3.10;99.90
19538;DHT22;9914;51.008;4.300;2024-01-15T06:07:07;3.10;99.90
19538;DHT22;9914;51.008;4.300;2024-01-15T06:09:33;3.10;99.90
19538;DHT22;9914;51.008;4.300;2024-01-15T06:11:59;3.00;99.90
19538;DHT22;9914;51.008;4.300;2024-01-15T06:14:24;3.00;99.90
19538;DHT22;9914;51.008;4.300;2024-01-15T06:16:52;3.00;99.90
19538;DHT22;9914;51.008;4.300;2024-01-15T06:19:17;2.90;99.90
19538;DHT22;9914;51.008;4.300;2024-01-15T06:21:43;2.90;99.90
19538;DHT22;9914;51.008;4.300;2024-01-15T06:24:09;2.90;99.90
19538;DHT22;9914;51.008;4.300;2024-01-15T06:26:35;2.90;99.90
19538;DHT22;9914;51.008;4.300;2024-01-15T06:29:01;2.90;99.90
19538;DHT22;9914;51.008;4.300;2024-01-15T06:31:28;2.90;99.90
19538;DHT22;9914;51.008;4.300;2024-01-15T06:33:55;2.80;99.90
19538;DHT22;9914;51.008;4.300;2024-01-15T06:36:20;2.90;99.90
19538;DHT22;9914;51.008;4.300;2024-01-15T06:38:46;2.90;99.90
19538;DHT22;9914;51.008;4.300;2024-01-15T06:41:12;2.80;99.90
19538;DHT22;9914;51.008;4.300;2024-01-15T06:43:37;2.80;99.90
19538;DHT22;9914;51.008;4.300;2024-01-15T06:46:03;2.80;99.90
19538;DHT22;9914;51.008;4.300;2024-01-15T06:48:29;2.80;99.90
19538;DHT22;9914;51.008;4.300;2024-01-15T06:50:54;2.70;99.90
19538;DHT22;9914;51.008;4.300;2024-01-15T06:53:20;2.70;99.90
19538;DHT22;9914;51.008;4.300;2024-01-15T06:55:46;2.80;99.90
19538;DHT22;9914;51.008;4.300;2024-01-15T06:58:12;2.70;99.90
19538;DHT22;9914;51.008;4.300;2024-01-15T07:00:37;2.70;99.90
19538;DHT22;9914;51.008;4.300;2024-01-15T07:03:03;2.70;99.90
19538;DHT22;9914;51.008;4.300;2024-01-15T07:05:29;2.60;99.90
19538;DHT22;9914;51.008;4.300;2024-01-15T07:07:56;2.70;99.90
19538;DHT22;9914;51.008;4.300;2024-01-15T07:10:21;2.80;99.90
19538;DHT22;9914;51.008;4.300;2024-01-15T07:12:47;2.90;99.90
19538;DHT22;9914;51.008;4.300;2024-01-15T07:15:13;2.90;99.90
19538;DHT22;9914;51.008;4.300;2024-01-15T07:17:39;2.90;99.90
19538;DHT22;9914;51.008;4.300;2024-01-15T07:20:07;3.00;99.90
19538;DHT22;9914;51.008;4.300;2024-01-15T07:22:38;3.10;99.90
19538;DHT22;9914;51.008;4.300;2024-01-15T07:25:04;3.10;99.90
19538;DHT22;9914;51.008;4.300;2024-01-15T07:27:31;3.10;99.90
19538;DHT22;9914;51.008;4.300;2024-01-15T07:29:57;3.00;99.90
19538;DHT22;9914;51.008;4.300;2024-01-15T07:32:23;3.00;99.90
19538;DHT22;9914;51.008;4.300;2024-01-15T07:34:49;2.90;99.90
19538;DHT22;9914;51.008;4.300;2024-01-15T07:37:15;3.00;99.90
19538;DHT22;9914;51.008;4.300;2024-01-15T07:39:40;3.00;99.90
19538;DHT22;9914;51.008;4.300;2024-01-15T07:42:07;3.00;99.90
19538;DHT22;9914;51.008;4.300;2024-01-15T07:44:33;3.10;99.90
19538;DHT22;9914;51.008;4.300;2024-01-15T07:46:59;3.20;99.90
19538;DHT22;9914;51.008;4.300;2024-01-15T07:49:25;3.20;99.90
19538;DHT22;9914;51.008;4.300;2024-01-15T07:51:50;3.30;99.90
19538;DHT22;9914;51.008;4.300;2024-01-15T07:54:16;3.30;99.90
19538;DHT22;9914;51.008;4.300;2024-01-15T07:57:01;3.30;99.90
19538;DHT22;9914;51.008;4.300;2024-01-15T07:59:28;3.40;99.90
19538;DHT22;9914;51.008;4.300;2024-01-15T08:01:53;3.40;99.90
19538;DHT22;9914;51.008;4.300;2024-01-15T08:04:20;3.30;99.90
19538;DHT22;9914;51.008;4.300;2024-01-15T08:06:46;3.40;99.90
19538;DHT22;9914;51.008;4.300;2024-01-15T08:09:12;3.30;99.90
19538;DHT22;9914;51.008;4.300;2024-01-15T08:11:40;3.40;99.90
19538;DHT22;9914;51.008;4.300;2024-01-15T08:14:10;3.40;99.90
19538;DHT22;9914;51.008;4.300;2024-01-15T08:16:36;3.40;99.90
19538;DHT22;9914;51.008;4.300;2024-01-15T08:19:02;3.40;99.90
19538;DHT22;9914;51.008;4.300;2024-01-15T08:21:28;3.40;99.90
19538;DHT22;9914;51.008;4.300;2024-01-15T08:23:58;3.40;99.90
19538;DHT22;9914;51.008;4.300;2024-01-15T08:26:24;3.50;99.90
19538;DHT22;9914;51.008;4.300;2024-01-15T08:28:50;3.50;99.90
19538;DHT22;9914;51.008;4.300;2024-01-15T08:31:16;3.40;99.90
19538;DHT22;9914;51.008;4.300;2024-01-15T08:33:41;3.50;99.90
19538;DHT22;9914;51.008;4.300;2024-01-15T08:36:07;3.50;99.90
19538;DHT22;9914;51.008;4.300;2024-01-15T08:38:33;3.50;99.90
19538;DHT22;9914;51.008;4.300;2024-01-15T08:40:59;3.40;99.90
19538;DHT22;9914;51.008;4.300;2024-01-15T08:43:26;3.50;99.90
19538;DHT22;9914;51.008;4.300;2024-01-15T08:45:52;3.50;99.90
19538;DHT22;9914;51.008;4.300;2024-01-15T08:48:18;3.60;99.90
19538;DHT22;9914;51.008;4.300;2024-01-15T08:50:45;3.60;99.90
19538;DHT22;9914;51.008;4.300;2024-01-15T08:53:13;3.50;99.90
19538;DHT22;9914;51.008;4.300;2024-01-15T08:55:39;3.50;99.90
19538;DHT22;9914;51.008;4.300;2024-01-15T08:58:05;3.40;99.90
19538;DHT22;9914;51.008;4.300;2024-01-15T09:00:31;3.40;99.90
19538;DHT22;9914;51.008;4.300;2024-01-15T09:02:57;3.40;99.90
19538;DHT22;9914;51.008;4.300;2024-01-15T09:05:23;3.40;99.90
19538;DHT22;9914;51.008;4.300;2024-01-15T09:07:49;3.30;99.90
19538;DHT22;9914;51.008;4.300;2024-01-15T09:10:17;3.40;99.90
19538;DHT22;9914;51.008;4.300;2024-01-15T09:12:43;3.40;99.90
19538;DHT22;9914;51.008;4.300;2024-01-15T09:15:09;3.40;99.90
19538;DHT22;9914;51.008;4.300;2024-01-15T09:17:34;3.40;99.90
19538;DHT22;9914;51.008;4.300;2024-01-15T09:20:00;3.50;99.90
19538;DHT22;9914;51.008;4.300;2024-01-15T09:22:26;3.50;99.90
19538;DHT22;9914;51.008;4.300;2024-01-15T09:24:52;3.60;99.90
19538;DHT22;9914;51.008;4.300;2024-01-15T09:27:18;3.60;99.90
19538;DHT22;9914;51.008;4.300;2024-01-15T09:29:44;3.60;99.90
19538;DHT22;9914;51.008;4.300;2024-01-15T09:32:12;3.60;99.90
19538;DHT22;9914;51.008;4.300;2024-01-15T09:34:38;3.60;99.90
19538;DHT22;9914;51.008;4.300;2024-01-15T09:37:04;3.70;99.90
19538;DHT22;9914;51.008;4.300;2024-01-15T09:39:30;3.60;99.90
19538;DHT22;9914;51.008;4.300;2024-01-15T09:41:57;3.70;99.90
19538;DHT22;9914;51.008;4.300;2024-01-15T09:44:23;3.70;99.90
19538;DHT22;9914;51.008;4.300;2024-01-15T09:46:49;3.80;99.90
19538;DHT22;9914;51.008;4.300;2024-01-15T09:49:18;3.80;99.90
19538;DHT22;9914;51.008;4.300;2024-01-15T09:51:44;3.90;99.90
19538;DHT22;9914;51.008;4.300;2024-01-15T09:54:10;4.00;99.90
19538;DHT22;9914;51.008;4.300;2024-01-15T09:56:39;4.20;99.90
19538;DHT22;9914;51.008;4.300;2024-01-15T09:59:05;4.20;99.90
19538;DHT22;9914;51.008;4.300;2024-01-15T10:01:35;4.20;99.90
19538;DHT22;9914;51.008;4.300;2024-01-15T10:04:02;4.20;99.90
19538;DHT22;9914;51.008;4.300;2024-01-15T10:06:28;4.10;99.90
19538;DHT22;9914;51.008;4.300;2024-01-15T10:08:54;4.10;99.90
19538;DHT22;9914;51.008;4.300;2024-01-15T10:11:22;4.00;99.90
19538;DHT22;9914;51.008;4.300;2024-01-15T10:13:48;3.90;99.90
19538;DHT22;9914;51.008;4.300;2024-01-15T10:16:21;3.90;99.90
19538;DHT22;9914;51.008;4.300;2024-01-15T10:18:48;4.00;99.90
19538;DHT22;9914;51.008;4.300;2024-01-15T10:21:13;4.10;99.90
19538;DHT22;9914;51.008;4.300;2024-01-15T10:23:39;4.00;99.90
19538;DHT22;9914;51.008;4.300;2024-01-15T10:26:05;4.10;99.90
19538;DHT22;9914;51.008;4.300;2024-01-15T10:28:31;4.10;99.90
19538;DHT22;9914;51.008;4.300;2024-01-15T10:30:58;4.30;99.90
19538;DHT22;9914;51.008;4.300;2024-01-15T10:33:26;4.40;99.90
19538;DHT22;9914;51.008;4.300;2024-01-15T10:35:56;4.50;99.90
19538;DHT22;9914;51.008;4.300;2024-01-15T10:38:23;4.70;99.90
19538;DHT22;9914;51.008;4.300;2024-01-15T10:40:53;4.90;99.90
19538;DHT22;9914;51.008;4.300;2024-01-15T10:43:19;4.80;99.90
19538;DHT22;9914;51.008;4.300;2024-01-15T10:45:46;4.90;99.90
19538;DHT22;9914;51.008;4.300;2024-01-15T10:48:12;5.00;99.90
19538;DHT22;9914;51.008;4.300;2024-01-15T10:50:38;5.00;99.90
19538;DHT22;9914;51.008;4.300;2024-01-15T10:53:04;5.20;99.90
19538;DHT22;9914;51.008;4.300;2024-01-15T10:55:31;5.10;99.90
19538;DHT22;9914;51.008;4.300;2024-01-15T10:57:58;5.00;99.90
19538;DHT22;9914;51.008;4.300;2024-01-15T11:00:23;5.00;99.90
19538;DHT22;9914;51.008;4.300;2024-01-15T11:02:50;5.10;99.90
19538;DHT22;9914;51.008;4.300;2024-01-15T11:05:17;5.00;99.90
19538;DHT22;9914;51.008;4.300;2024-01-15T11:07:50;5.10;99.90
19538;DHT22;9914;51.008;4.300;2024-01-15T11:15:59;4.90;99.90
19538;DHT22;9914;51.008;4.300;2024-01-15T11:19:12;5.00;99.90
19538;DHT22;9914;51.008;4.300;2024-01-15T11:21:42;5.30;99.90
19538;DHT22;9914;51.008;4.300;2024-01-15T11:24:07;5.30;99.90
19538;DHT22;9914;51.008;4.300;2024-01-15T11:26:46;5.30;99.90
19538;DHT22;9914;51.008;4.300;2024-01-15T11:31:57;5.10;99.90
19538;DHT22;9914;51.008;4.300;2024-01-15T11:37:21;5.00;99.90
19538;DHT22;9914;51.008;4.300;2024-01-15T11:39:47;5.00;99.90
19538;DHT22;9914;51.008;4.300;2024-01-15T11:42:13;4.90;99.90
19538;DHT22;9914;51.008;4.300;2024-01-15T11:44:40;5.00;99.90
19538;DHT22;9914;51.008;4.300;2024-01-15T11:47:06;5.00;99.90
19538;DHT22;9914;51.008;4.300;2024-01-15T11:52:25;4.90;99.90
19538;DHT22;9914;51.008;4.300;2024-01-15T11:55:28;4.90;99.90
19538;DHT22;9914;51.008;4.300;2024-01-15T11:57:55;4.70;99.90
19538;DHT22;9914;51.008;4.300;2024-01-15T12:00:23;4.90;99.90
19538;DHT22;9914;51.008;4.300;2024-01-15T12:02:50;4.90;99.90
19538;DHT22;9914;51.008;4.300;2024-01-15T12:05:18;5.00;99.90
19538;DHT22;9914;51.008;4.300;2024-01-15T12:07:46;5.10;99.90
19538;DHT22;9914;51.008;4.300;2024-01-15T12:10:17;5.00;99.90
19538;DHT22;9914;51.008;4.300;2024-01-15T12:15:35;5.20;99.90
19538;DHT22;9914;51.008;4.300;2024-01-15T12:18:02;5.30;99.90
19538;DHT22;9914;51.008;4.300;2024-01-15T12:20:31;5.50;99.90
19538;DHT22;9914;51.008;4.300;2024-01-15T12:22:58;5.50;99.90
19538;DHT22;9914;51.008;4.300;2024-01-15T12:25:24;5.50;99.90
19538;DHT22;9914;51.008;4.300;2024-01-15T12:27:53;5.40;99.90
19538;DHT22;9914;51.008;4.300;2024-01-15T12:30:19;5.20;99.90
19538;DHT22;9914;51.008;4.300;2024-01-15T12:32:45;5.00;99.90
19538;DHT22;9914;51.008;4.300;2024-01-15T12:35:13;4.90;99.90
19538;DHT22;9914;51.008;4.300;2024-01-15T12:37:44;4.90;99.90
19538;DHT22;9914;51.008;4.300;2024-01-15T12:40:12;4.90;99.90
19538;DHT22;9914;51.008;4.300;2024-01-15T12:42:40;4.90;99.90
19538;DHT22;9914;51.008;4.300;2024-01-15T12:45:06;4.90;99.90
19538;DHT22;9914;51.008;4.300;2024-01-15T12:47:32;5.00;99.90
19538;DHT22;9914;51.008;4.300;2024-01-15T12:49:58;5.10;99.90
19538;DHT22;9914;51.008;4.300;2024-01-15T12:52:27;5.20;99.90
19538;DHT22;9914;51.008;4.300;2024-01-15T12:54:53;5.20;99.90
19538;DHT22;9914;51.008;4.300;2024-01-15T12:57:19;5.20;99.90
19538;DHT22;9914;51.008;4.300;2024-01-15T12:59:45;5.10;99.90
19538;DHT22;9914;51.008;4.300;2024-01-15T13:02:15;5.20;99.90
19538;DHT22;9914;51.008;4.300;2024-01-15T13:04:41;5.00;99.90
19538;DHT22;9914;51.008;4.300;2024-01-15T13:07:07;4.70;99.90
19538;DHT22;9914;51.008;4.300;2024-01-15T13:09:34;4.50;99.90
19538;DHT22;9914;51.008;4.300;2024-01-15T13:12:00;4.30;99.90
19538;DHT22;9914;51.008;4.300;2024-01-15T13:14:27;3.90;99.90
19538;DHT22;9914;51.008;4.300;2024-01-15T13:16:52;3.50;99.90
19538;DHT22;9914;51.008;4.300;2024-01-15T13:19:19;3.30;99.90
19538;DHT22;9914;51.008;4.300;2024-01-15T13:21:46;3.10;99.90
19538;DHT22;9914;51.008;4.300;2024-01-15T13:24:12;3.10;99.90
19538;DHT22;9914;51.008;4.300;2024-01-15T13:26:37;3.20;99.90
19538;DHT22;9914;51.008;4.300;2024-01-15T13:29:03;3.20;99.90
19538;DHT22;9914;51.008;4.300;2024-01-15T13:31:29;2.90;99.90
19538;DHT22;9914;51.008;4.300;2024-01-15T13:33:55;2.70;99.90
19538;DHT22;9914;51.008;4.300;2024-01-15T13:36:22;2.20;99.90
19538;DHT22;9914;51.008;4.300;2024-01-15T13:38:52;1.80;99.90
19538;DHT22;9914;51.008;4.300;2024-01-15T13:41:22;1.50;99.90
19538;DHT22;9914;51.008;4.300;2024-01-15T13:43:53;1.80;99.90
19538;DHT22;9914;51.008;4.300;2024-01-15T13:46:23;2.10;99.90
19538;DHT22;9914;51.008;4.300;2024-01-15T13:48:49;2.10;99.90
19538;DHT22;9914;51.008;4.300;2024-01-15T13:51:15;2.40;99.90
19538;DHT22;9914;51.008;4.300;2024-01-15T13:53:41;2.70;99.90
19538;DHT22;9914;51.008;4.300;2024-01-15T13:56:07;2.80;99.90
19538;DHT22;9914;51.008;4.300;2024-01-15T13:58:33;2.90;99.90
19538;DHT22;9914;51.008;4.300;2024-01-15T14:01:00;3.00;99.90
19538;DHT22;9914;51.008;4.300;2024-01-15T14:03:25;3.20;99.90
19538;DHT22;9914;51.008;4.300;2024-01-15T14:05:51;3.30;99.90
19538;DHT22;9914;51.008;4.300;2024-01-15T14:08:17;3.10;99.90
19538;DHT22;9914;51.008;4.300;2024-01-15T14:10:43;3.20;99.90
19538;DHT22;9914;51.008;4.300;2024-01-15T14:13:09;3.20;99.90
19538;DHT22;9914;51.008;4.300;2024-01-15T14:15:35;3.20;99.90
19538;DHT22;9914;51.008;4.300;2024-01-15T14:18:01;3.10;99.90
19538;DHT22;9914;51.008;4.300;2024-01-15T14:20:26;2.90;99.90
19538;DHT22;9914;51.008;4.300;2024-01-15T14:22:53;2.90;99.90
19538;DHT22;9914;51.008;4.300;2024-01-15T14:25:19;2.80;99.90
19538;DHT22;9914;51.008;4.300;2024-01-15T14:27:45;2.70;99.90
19538;DHT22;9914;51.008;4.300;2024-01-15T14:30:11;2.70;99.90
19538;DHT22;9914;51.008;4.300;2024-01-15T14:32:39;2.70;99.90
19538;DHT22;9914;51.008;4.300;2024-01-15T14:35:05;2.80;99.90
19538;DHT22;9914;51.008;4.300;2024-01-15T14:37:33;2.90;99.90
19538;DHT22;9914;51.008;4.300;2024-01-15T14:39:59;3.00;99.90
19538;DHT22;9914;51.008;4.300;2024-01-15T14:42:24;3.10;99.90
19538;DHT22;9914;51.008;4.300;2024-01-15T14:44:51;3.30;99.90
19538;DHT22;9914;51.008;4.300;2024-01-15T14:47:16;3.40;99.90
19538;DHT22;9914;51.008;4.300;2024-01-15T14:49:42;3.60;99.90
19538;DHT22;9914;51.008;4.300;2024-01-15T14:52:08;3.60;99.90
19538;DHT22;9914;51.008;4.300;2024-01-15T14:54:33;3.60;99.90
19538;DHT22;9914;51.008;4.300;2024-01-15T14:57:00;3.50;99.90
19538;DHT22;9914;51.008;4.300;2024-01-15T14:59:26;3.40;99.90
19538;DHT22;9914;51.008;4.300;2024-01-15T15:01:54;3.40;99.90
19538;DHT22;9914;51.008;4.300;2024-01-15T15:04:19;3.30;99.90
19538;DHT22;9914;51.008;4.300;2024-01-15T15:06:45;3.30;99.90
19538;DHT22;9914;51.008;4.300;2024-01-15T15:09:11;3.30;99.90
19538;DHT22;9914;51.008;4.300;2024-01-15T15:11:37;3.30;99.90
19538;DHT22;9914;51.008;4.300;2024-01-15T15:14:03;3.30;99.90
19538;DHT22;9914;51.008;4.300;2024-01-15T15:16:31;3.30;99.90
19538;DHT22;9914;51.008;4.300;2024-01-15T15:18:57;3.30;99.90
19538;DHT22;9914;51.008;4.300;2024-01-15T15:21:23;3.30;99.90
19538;DHT22;9914;51.008;4.300;2024-01-15T15:23:48;3.30;99.90
19538;DHT22;9914;51.008;4.300;2024-01-15T15:26:14;3.40;99.90
19538;DHT22;9914;51.008;4.300;2024-01-15T15:28:40;3.30;99.90
19538;DHT22;9914;51.008;4.300;2024-01-15T15:31:06;3.30;99.90
19538;DHT22;9914;51.008;4.300;2024-01-15T15:33:36;3.30;99.90
19538;DHT22;9914;51.008;4.300;2024-01-15T15:36:02;3.40;99.90
19538;DHT22;9914;51.008;4.300;2024-01-15T15:38:31;3.40;99.90
19538;DHT22;9914;51.008;4.300;2024-01-15T15:40:56;3.40;99.90
19538;DHT22;9914;51.008;4.300;2024-01-15T15:43:22;3.50;99.90
19538;DHT22;9914;51.008;4.300;2024-01-15T15:45:48;3.50;99.90
19538;DHT22;9914;51.008;4.300;2024-01-15T15:48:14;3.40;99.90
19538;DHT22;9914;51.008;4.300;2024-01-15T15:50:40;3.40;99.90
19538;DHT22;9914;51.008;4.300;2024-01-15T15:53:05;3.30;99.90
19538;DHT22;9914;51.008;4.300;2024-01-15T15:55:31;3.20;99.90
19538;DHT22;9914;51.008;4.300;2024-01-15T15:57:57;3.20;99.90
19538;DHT22;9914;51.008;4.300;2024-01-15T16:00:22;3.20;99.90
19538;DHT22;9914;51.008;4.300;2024-01-15T16:02:48;3.20;99.90
19538;DHT22;9914;51.008;4.300;2024-01-15T16:05:14;3.20;99.90
19538;DHT22;9914;51.008;4.300;2024-01-15T16:07:40;3.30;99.90
19538;DHT22;9914;51.008;4.300;2024-01-15T16:10:06;3.10;99.90
19538;DHT22;9914;51.008;4.300;2024-01-15T16:12:31;3.10;99.90
19538;DHT22;9914;51.008;4.300;2024-01-15T16:15:00;3.10;99.90